BRA1721 SBCT-SBKP
Flight info
| Callsign | BRA1721 |
|---|---|
| Flight time | 0h 38m |
| Altitude | 25000 |
| Route | AKPEN DCT EDRAT |
| Aircraft | B77L/H-SDE1E2E3FGHIJ2J3J4J5M1RWXY/LB1D1 |
Departure
| Time | 2026-05-08 21:22 |
|---|---|
| Airport | Curitiba-Afonso Pena International Airport (SBCT) |
Arrival
| Time | 2026-05-08 22:00 |
|---|---|
| Airport | Viracopos International Airport (SBKP) |
| Time | Latitude | Longitude | Altitude | Speed | Heading |
|---|---|---|---|---|---|
| 2026-05-08 21:09 | -25.53427 | -49.17393 | 3025 ft | 0 kts | 225° |
| 2026-05-08 21:11 | -25.53426 | -49.17392 | 3025 ft | 2 kts | 225° |
| 2026-05-08 21:11 | -25.53407 | -49.17372 | 3000 ft | 4 kts | 219° |
| 2026-05-08 21:11 | -25.53385 | -49.17354 | 3004 ft | 4 kts | 212° |
| 2026-05-08 21:12 | -25.53362 | -49.17340 | 3001 ft | 4 kts | 204° |
| 2026-05-08 21:12 | -25.53337 | -49.17329 | 3002 ft | 4 kts | 194° |
| 2026-05-08 21:12 | -25.53311 | -49.17324 | 3002 ft | 4 kts | 181° |
| 2026-05-08 21:12 | -25.53285 | -49.17326 | 3002 ft | 4 kts | 163° |
| 2026-05-08 21:13 | -25.53262 | -49.17338 | 3002 ft | 3 kts | 137° |
| 2026-05-08 21:13 | -25.53259 | -49.17341 | 3003 ft | 0 kts | 134° |
| 2026-05-08 21:17 | -25.53289 | -49.17308 | 3002 ft | 11 kts | 135° |
| 2026-05-08 21:17 | -25.53342 | -49.17249 | 2997 ft | 11 kts | 135° |
| 2026-05-08 21:17 | -25.53392 | -49.17191 | 2996 ft | 11 kts | 134° |
| 2026-05-08 21:18 | -25.53445 | -49.17133 | 2995 ft | 11 kts | 135° |
| 2026-05-08 21:18 | -25.53497 | -49.17076 | 2996 ft | 11 kts | 135° |
| 2026-05-08 21:18 | -25.53548 | -49.17017 | 2995 ft | 11 kts | 134° |
| 2026-05-08 21:18 | -25.53598 | -49.16959 | 2994 ft | 10 kts | 125° |
| 2026-05-08 21:19 | -25.53609 | -49.16924 | 2994 ft | 0 kts | 97° |
| 2026-05-08 21:20 | -25.53609 | -49.16915 | 2994 ft | 4 kts | 95° |
| 2026-05-08 21:20 | -25.53611 | -49.16882 | 2994 ft | 4 kts | 92° |
| 2026-05-08 21:20 | -25.53612 | -49.16850 | 2995 ft | 4 kts | 91° |
| 2026-05-08 21:20 | -25.53612 | -49.16817 | 2995 ft | 4 kts | 91° |
| 2026-05-08 21:21 | -25.53611 | -49.16785 | 2995 ft | 4 kts | 85° |
| 2026-05-08 21:21 | -25.53596 | -49.16759 | 2997 ft | 4 kts | 26° |
| 2026-05-08 21:21 | -25.53568 | -49.16774 | 2995 ft | 4 kts | 320° |
| 2026-05-08 21:21 | -25.53555 | -49.16788 | 2995 ft | 18 kts | 315° |
| 2026-05-08 21:22 | -25.53231 | -49.17146 | 2998 ft | 110 kts | 315° |
| 2026-05-08 21:22 | -25.52487 | -49.17952 | 3031 ft | 185 kts | 320° |
| 2026-05-08 21:22 | -25.51705 | -49.19034 | 3944 ft | 175 kts | 295° |
| 2026-05-08 21:22 | -25.51404 | -49.20266 | 5096 ft | 159 kts | 301° |
| 2026-05-08 21:23 | -25.50802 | -49.21297 | 5659 ft | 162 kts | 306° |
| 2026-05-08 21:23 | -25.50212 | -49.22359 | 6222 ft | 164 kts | 304° |
| 2026-05-08 21:23 | -25.49623 | -49.23456 | 6813 ft | 164 kts | 304° |
| 2026-05-08 21:23 | -25.49038 | -49.24557 | 7271 ft | 172 kts | 303° |
| 2026-05-08 21:24 | -25.48372 | -49.25721 | 7531 ft | 186 kts | 313° |
| 2026-05-08 21:24 | -25.47332 | -49.26646 | 8071 ft | 194 kts | 326° |
| 2026-05-08 21:24 | -25.46113 | -49.27301 | 8733 ft | 200 kts | 336° |
| 2026-05-08 21:24 | -25.44810 | -49.27837 | 9339 ft | 200 kts | 326° |
| 2026-05-08 21:25 | -25.43499 | -49.28401 | 9845 ft | 215 kts | 350° |
| 2026-05-08 21:25 | -25.41924 | -49.27910 | 9975 ft | 264 kts | 25° |
| 2026-05-08 21:25 | -25.40365 | -49.26684 | 10128 ft | 285 kts | 22° |
| 2026-05-08 21:25 | -25.38551 | -49.25552 | 10350 ft | 310 kts | 20° |
| 2026-05-08 21:26 | -25.36584 | -49.24351 | 10544 ft | 338 kts | 22° |
| 2026-05-08 21:26 | -25.34478 | -49.23019 | 10818 ft | 361 kts | 23° |
| 2026-05-08 21:26 | -25.32273 | -49.21599 | 11428 ft | 371 kts | 22° |
| 2026-05-08 21:26 | -25.29992 | -49.20263 | 12120 ft | 377 kts | 20° |
| 2026-05-08 21:27 | -25.27624 | -49.18954 | 12934 ft | 380 kts | 19° |
| 2026-05-08 21:27 | -25.25245 | -49.17662 | 13727 ft | 384 kts | 19° |
| 2026-05-08 21:27 | -25.22839 | -49.16353 | 14432 ft | 389 kts | 19° |
| 2026-05-08 21:27 | -25.20396 | -49.15016 | 15118 ft | 394 kts | 20° |
| 2026-05-08 21:28 | -25.17922 | -49.13654 | 15830 ft | 398 kts | 20° |
| 2026-05-08 21:28 | -25.15422 | -49.12271 | 16499 ft | 403 kts | 20° |
| 2026-05-08 21:28 | -25.12903 | -49.10877 | 17148 ft | 409 kts | 20° |
| 2026-05-08 21:28 | -25.10340 | -49.09457 | 17798 ft | 414 kts | 20° |
| 2026-05-08 21:29 | -25.07756 | -49.08021 | 18397 ft | 419 kts | 20° |
| 2026-05-08 21:29 | -25.05132 | -49.06560 | 18968 ft | 423 kts | 20° |
| 2026-05-08 21:29 | -25.02520 | -49.05111 | 19558 ft | 426 kts | 20° |
| 2026-05-08 21:29 | -24.99867 | -49.03642 | 20140 ft | 429 kts | 21° |
| 2026-05-08 21:30 | -24.97156 | -49.02142 | 20711 ft | 433 kts | 21° |
| 2026-05-08 21:30 | -24.94486 | -49.00664 | 21253 ft | 437 kts | 21° |
| 2026-05-08 21:30 | -24.91736 | -48.99143 | 21836 ft | 440 kts | 21° |
| 2026-05-08 21:30 | -24.88994 | -48.97624 | 22403 ft | 444 kts | 21° |
| 2026-05-08 21:31 | -24.86254 | -48.96108 | 22905 ft | 446 kts | 21° |
| 2026-05-08 21:31 | -24.83459 | -48.94565 | 23384 ft | 450 kts | 21° |
| 2026-05-08 21:31 | -24.80647 | -48.93012 | 23811 ft | 454 kts | 21° |
| 2026-05-08 21:31 | -24.77831 | -48.91458 | 24217 ft | 457 kts | 21° |
| 2026-05-08 21:32 | -24.74980 | -48.89884 | 24656 ft | 459 kts | 21° |
| 2026-05-08 21:32 | -24.72072 | -48.88281 | 25033 ft | 463 kts | 21° |
| 2026-05-08 21:32 | -24.69188 | -48.86690 | 25424 ft | 467 kts | 21° |
| 2026-05-08 21:32 | -24.66304 | -48.85102 | 25819 ft | 471 kts | 21° |
| 2026-05-08 21:33 | -24.63364 | -48.83484 | 26250 ft | 474 kts | 21° |
| 2026-05-08 21:33 | -24.60409 | -48.81856 | 26676 ft | 477 kts | 21° |
| 2026-05-08 21:33 | -24.58422 | -48.80763 | 26962 ft | 479 kts | 21° |
| 2026-05-08 21:33 | -24.55432 | -48.79119 | 27375 ft | 483 kts | 21° |
| 2026-05-08 21:34 | -24.51391 | -48.76896 | 27937 ft | 487 kts | 21° |
| 2026-05-08 21:34 | -24.49378 | -48.75706 | 28230 ft | 491 kts | 24° |
| 2026-05-08 21:34 | -24.46458 | -48.73774 | 28823 ft | 492 kts | 26° |
| 2026-05-08 21:34 | -24.43606 | -48.71760 | 29467 ft | 490 kts | 27° |
| 2026-05-08 21:35 | -24.40757 | -48.69716 | 30112 ft | 488 kts | 27° |
| 2026-05-08 21:35 | -24.37895 | -48.67674 | 30661 ft | 486 kts | 27° |
| 2026-05-08 21:35 | -24.35081 | -48.65695 | 30969 ft | 488 kts | 26° |
| 2026-05-08 21:36 | -24.29318 | -48.61709 | 30944 ft | 485 kts | 26° |
| 2026-05-08 21:36 | -24.23634 | -48.57819 | 30938 ft | 475 kts | 25° |
| 2026-05-08 21:36 | -24.20860 | -48.55916 | 30924 ft | 461 kts | 25° |
| 2026-05-08 21:37 | -24.18212 | -48.54099 | 30791 ft | 451 kts | 25° |
| 2026-05-08 21:37 | -24.15542 | -48.52274 | 30495 ft | 455 kts | 25° |
| 2026-05-08 21:37 | -24.12843 | -48.50440 | 30529 ft | 464 kts | 25° |
| 2026-05-08 21:37 | -24.10065 | -48.48554 | 30533 ft | 475 kts | 25° |
| 2026-05-08 21:38 | -24.07232 | -48.46622 | 30445 ft | 474 kts | 25° |
| 2026-05-08 21:38 | -24.04470 | -48.44729 | 29760 ft | 468 kts | 25° |
| 2026-05-08 21:38 | -24.01748 | -48.42859 | 28801 ft | 454 kts | 25° |
| 2026-05-08 21:38 | -23.99091 | -48.41036 | 27900 ft | 439 kts | 25° |
| 2026-05-08 21:39 | -23.96572 | -48.39315 | 27049 ft | 427 kts | 25° |
| 2026-05-08 21:39 | -23.94070 | -48.37612 | 26208 ft | 417 kts | 25° |
| 2026-05-08 21:39 | -23.91606 | -48.35941 | 25445 ft | 421 kts | 25° |
| 2026-05-08 21:39 | -23.89101 | -48.34245 | 24699 ft | 428 kts | 26° |
| 2026-05-08 21:40 | -23.86526 | -48.32497 | 24113 ft | 434 kts | 26° |
| 2026-05-08 21:40 | -23.84129 | -48.30609 | 23759 ft | 426 kts | 38° |
| 2026-05-08 21:40 | -23.82289 | -48.28006 | 23367 ft | 431 kts | 55° |
| 2026-05-08 21:41 | -23.79351 | -48.22313 | 22458 ft | 427 kts | 56° |
| 2026-05-08 21:41 | -23.77904 | -48.19513 | 22027 ft | 425 kts | 56° |
| 2026-05-08 21:41 | -23.76452 | -48.16729 | 21603 ft | 423 kts | 55° |
| 2026-05-08 21:41 | -23.74975 | -48.13923 | 21177 ft | 421 kts | 55° |
| 2026-05-08 21:42 | -23.73514 | -48.11165 | 20754 ft | 419 kts | 55° |
| 2026-05-08 21:42 | -23.72067 | -48.08443 | 20329 ft | 417 kts | 55° |
| 2026-05-08 21:42 | -23.70600 | -48.05691 | 19914 ft | 416 kts | 55° |
| 2026-05-08 21:42 | -23.69156 | -48.02984 | 19501 ft | 414 kts | 55° |
| 2026-05-08 21:43 | -23.67710 | -48.00277 | 19069 ft | 413 kts | 55° |
| 2026-05-08 21:43 | -23.66262 | -47.97565 | 18632 ft | 411 kts | 55° |
| 2026-05-08 21:43 | -23.64869 | -47.94949 | 18185 ft | 390 kts | 55° |
| 2026-05-08 21:43 | -23.63519 | -47.92412 | 17755 ft | 382 kts | 54° |
| 2026-05-08 21:44 | -23.62185 | -47.89921 | 17339 ft | 381 kts | 54° |
| 2026-05-08 21:44 | -23.60847 | -47.87426 | 16944 ft | 381 kts | 54° |
| 2026-05-08 21:44 | -23.59515 | -47.84943 | 16540 ft | 380 kts | 55° |
| 2026-05-08 21:44 | -23.58173 | -47.82441 | 16134 ft | 380 kts | 55° |
| 2026-05-08 21:45 | -23.56868 | -47.80000 | 15714 ft | 368 kts | 55° |
| 2026-05-08 21:45 | -23.55593 | -47.77618 | 15336 ft | 364 kts | 55° |
| 2026-05-08 21:45 | -23.54307 | -47.75223 | 14956 ft | 364 kts | 55° |
| 2026-05-08 21:45 | -23.53037 | -47.72858 | 14582 ft | 364 kts | 55° |
| 2026-05-08 21:46 | -23.51761 | -47.70483 | 14178 ft | 365 kts | 55° |
| 2026-05-08 21:46 | -23.50481 | -47.68096 | 13774 ft | 356 kts | 55° |
| 2026-05-08 21:46 | -23.49258 | -47.65814 | 13355 ft | 346 kts | 55° |
| 2026-05-08 21:46 | -23.48042 | -47.63553 | 12975 ft | 346 kts | 55° |
| 2026-05-08 21:47 | -23.46824 | -47.61289 | 12584 ft | 346 kts | 55° |
| 2026-05-08 21:47 | -23.45612 | -47.59038 | 12224 ft | 345 kts | 55° |
| 2026-05-08 21:47 | -23.44402 | -47.56793 | 11831 ft | 346 kts | 55° |
| 2026-05-08 21:47 | -23.43169 | -47.54504 | 11476 ft | 345 kts | 55° |
| 2026-05-08 21:48 | -23.41981 | -47.52296 | 11079 ft | 331 kts | 55° |
| 2026-05-08 21:48 | -23.40870 | -47.50224 | 10871 ft | 308 kts | 55° |
| 2026-05-08 21:48 | -23.39818 | -47.48269 | 10607 ft | 288 kts | 54° |
| 2026-05-08 21:48 | -23.38821 | -47.46422 | 10042 ft | 280 kts | 54° |
| 2026-05-08 21:49 | -23.37841 | -47.44611 | 9417 ft | 274 kts | 54° |
| 2026-05-08 21:49 | -23.36885 | -47.42845 | 8889 ft | 273 kts | 54° |
| 2026-05-08 21:49 | -23.35925 | -47.41071 | 8688 ft | 271 kts | 54° |
| 2026-05-08 21:49 | -23.34978 | -47.39316 | 8604 ft | 261 kts | 54° |
| 2026-05-08 21:50 | -23.34090 | -47.37667 | 8571 ft | 245 kts | 54° |
| 2026-05-08 21:50 | -23.33256 | -47.36120 | 8539 ft | 237 kts | 53° |
| 2026-05-08 21:50 | -23.32411 | -47.34561 | 8541 ft | 237 kts | 53° |
| 2026-05-08 21:50 | -23.31577 | -47.33024 | 8537 ft | 238 kts | 53° |
| 2026-05-08 21:51 | -23.30733 | -47.31468 | 8488 ft | 241 kts | 54° |
| 2026-05-08 21:51 | -23.29879 | -47.29893 | 8415 ft | 244 kts | 54° |
| 2026-05-08 21:51 | -23.29021 | -47.28304 | 8309 ft | 240 kts | 54° |
| 2026-05-08 21:51 | -23.28189 | -47.26764 | 8228 ft | 234 kts | 54° |
| 2026-05-08 21:52 | -23.27373 | -47.25256 | 8180 ft | 224 kts | 53° |
| 2026-05-08 21:52 | -23.26598 | -47.23823 | 8092 ft | 216 kts | 53° |
| 2026-05-08 21:52 | -23.25844 | -47.22432 | 8014 ft | 214 kts | 53° |
| 2026-05-08 21:52 | -23.25085 | -47.21036 | 7866 ft | 215 kts | 53° |
| 2026-05-08 21:53 | -23.24328 | -47.19641 | 7739 ft | 214 kts | 53° |
| 2026-05-08 21:53 | -23.23577 | -47.18255 | 7606 ft | 213 kts | 53° |
| 2026-05-08 21:53 | -23.22816 | -47.16854 | 7474 ft | 213 kts | 53° |
| 2026-05-08 21:53 | -23.22062 | -47.15464 | 7334 ft | 214 kts | 53° |
| 2026-05-08 21:54 | -23.21312 | -47.14083 | 7189 ft | 213 kts | 53° |
| 2026-05-08 21:54 | -23.20575 | -47.12719 | 7086 ft | 203 kts | 53° |
| 2026-05-08 21:54 | -23.19875 | -47.11427 | 6912 ft | 192 kts | 52° |
| 2026-05-08 21:54 | -23.19207 | -47.10196 | 6780 ft | 187 kts | 53° |
| 2026-05-08 21:55 | -23.18546 | -47.08980 | 6683 ft | 188 kts | 53° |
| 2026-05-08 21:55 | -23.17881 | -47.07759 | 6536 ft | 190 kts | 53° |
| 2026-05-08 21:55 | -23.17038 | -47.06713 | 6363 ft | 176 kts | 19° |
| 2026-05-08 21:56 | -23.14734 | -47.06775 | 6532 ft | 172 kts | 343° |
| 2026-05-08 21:56 | -23.13574 | -47.07001 | 6537 ft | 169 kts | 3° |
| 2026-05-08 21:56 | -23.12484 | -47.06438 | 6464 ft | 182 kts | 36° |
| 2026-05-08 21:56 | -23.11545 | -47.05468 | 6201 ft | 188 kts | 37° |
| 2026-05-08 21:57 | -23.10577 | -47.04490 | 5632 ft | 190 kts | 35° |
| 2026-05-08 21:57 | -23.09540 | -47.03677 | 5172 ft | 178 kts | 18° |
| 2026-05-08 21:57 | -23.08417 | -47.03520 | 4796 ft | 153 kts | 343° |
| 2026-05-08 21:57 | -23.07511 | -47.04065 | 4161 ft | 151 kts | 320° |
| 2026-05-08 21:58 | -23.06855 | -47.04878 | 3850 ft | 145 kts | 305° |
| 2026-05-08 21:58 | -23.06332 | -47.05838 | 3818 ft | 149 kts | 305° |
| 2026-05-08 21:58 | -23.05815 | -47.06713 | 3461 ft | 145 kts | 308° |
| 2026-05-08 21:58 | -23.05189 | -47.07513 | 3361 ft | 138 kts | 316° |
| 2026-05-08 21:59 | -23.04503 | -47.08262 | 3224 ft | 145 kts | 313° |
| 2026-05-08 21:59 | -23.03860 | -47.09120 | 3033 ft | 146 kts | 307° |
| 2026-05-08 21:59 | -23.03235 | -47.10026 | 2792 ft | 154 kts | 313° |
| 2026-05-08 21:59 | -23.02556 | -47.10939 | 2534 ft | 158 kts | 309° |
| 2026-05-08 22:00 | -23.01892 | -47.11855 | 2322 ft | 151 kts | 306° |
| 2026-05-08 22:00 | -23.01241 | -47.12753 | 2156 ft | 146 kts | 308° |
| 2026-05-08 22:00 | -23.00735 | -47.13460 | 2151 ft | 87 kts | 308° |
| 2026-05-08 22:00 | -23.00504 | -47.13783 | 2153 ft | 23 kts | 307° |
| 2026-05-08 22:01 | -23.00413 | -47.13910 | 2155 ft | 21 kts | 308° |
| 2026-05-08 22:01 | -23.00323 | -47.14035 | 2154 ft | 21 kts | 307° |
| 2026-05-08 22:01 | -23.00232 | -47.14163 | 2155 ft | 21 kts | 308° |
| 2026-05-08 22:01 | -23.00142 | -47.14287 | 2152 ft | 21 kts | 308° |
| 2026-05-08 22:02 | -23.00055 | -47.14411 | 2152 ft | 21 kts | 307° |
| 2026-05-08 22:02 | -22.99972 | -47.14540 | 2153 ft | 17 kts | 293° |
| 2026-05-08 22:02 | -22.99967 | -47.14597 | 2160 ft | 3 kts | 262° |
| 2026-05-08 22:02 | -22.99972 | -47.14618 | 2159 ft | 3 kts | 252° |
| 2026-05-08 22:03 | -22.99981 | -47.14637 | 2154 ft | 3 kts | 240° |
| 2026-05-08 22:03 | -23.00002 | -47.14664 | 2157 ft | 6 kts | 224° |
| 2026-05-08 22:03 | -23.00035 | -47.14695 | 2136 ft | 6 kts | 219° |
| 2026-05-08 22:03 | -23.00070 | -47.14722 | 2155 ft | 6 kts | 209° |
| 2026-05-08 22:04 | -23.00112 | -47.14736 | 2156 ft | 6 kts | 189° |
| 2026-05-08 22:04 | -23.00154 | -47.14731 | 2153 ft | 6 kts | 154° |
| 2026-05-08 22:04 | -23.00185 | -47.14697 | 2157 ft | 6 kts | 132° |
| 2026-05-08 22:04 | -23.00214 | -47.14660 | 2157 ft | 6 kts | 127° |
| 2026-05-08 22:05 | -23.00241 | -47.14622 | 2153 ft | 6 kts | 128° |
| 2026-05-08 22:05 | -23.00268 | -47.14585 | 2157 ft | 6 kts | 128° |
| 2026-05-08 22:05 | -23.00295 | -47.14547 | 2156 ft | 6 kts | 128° |
| 2026-05-08 22:05 | -23.00323 | -47.14509 | 2153 ft | 6 kts | 128° |
| 2026-05-08 22:06 | -23.00350 | -47.14471 | 2154 ft | 6 kts | 128° |
| 2026-05-08 22:06 | -23.00377 | -47.14433 | 2154 ft | 6 kts | 128° |
| 2026-05-08 22:06 | -23.00404 | -47.14396 | 2155 ft | 6 kts | 128° |
| 2026-05-08 22:06 | -23.00431 | -47.14358 | 2155 ft | 6 kts | 128° |
| 2026-05-08 22:07 | -23.00458 | -47.14320 | 2156 ft | 6 kts | 128° |
| 2026-05-08 22:07 | -23.00485 | -47.14282 | 2157 ft | 6 kts | 128° |
| 2026-05-08 22:07 | -23.00513 | -47.14244 | 2153 ft | 6 kts | 128° |
| 2026-05-08 22:07 | -23.00540 | -47.14206 | 2153 ft | 6 kts | 130° |
| 2026-05-08 22:08 | -23.00581 | -47.14201 | 2158 ft | 7 kts | 211° |
| 2026-05-08 22:08 | -23.00617 | -47.14233 | 2153 ft | 7 kts | 218° |
| 2026-05-08 22:08 | -23.00634 | -47.14247 | 2155 ft | 2 kts | 218° |
| 2026-05-08 22:08 | -23.00635 | -47.14247 | 2155 ft | 0 kts | 218° |